sensor_id;sensor_type;location;lat;lon;timestamp;P1;durP1;ratioP1;P2;durP2;ratioP2
11743;SDS011;5929;51.906;7.674;2023-06-19T00:00:30;9.18;;;7.13;;
11743;SDS011;5929;51.906;7.674;2023-06-19T00:02:57;8.70;;;7.22;;
11743;SDS011;5929;51.906;7.674;2023-06-19T00:05:24;8.95;;;7.03;;
11743;SDS011;5929;51.906;7.674;2023-06-19T00:07:51;9.32;;;7.65;;
11743;SDS011;5929;51.906;7.674;2023-06-19T00:10:18;9.93;;;7.63;;
11743;SDS011;5929;51.906;7.674;2023-06-19T00:12:46;9.27;;;7.30;;
11743;SDS011;5929;51.906;7.674;2023-06-19T00:15:14;9.80;;;7.63;;
11743;SDS011;5929;51.906;7.674;2023-06-19T00:17:41;12.40;;;7.60;;
11743;SDS011;5929;51.906;7.674;2023-06-19T00:20:08;11.50;;;7.35;;
11743;SDS011;5929;51.906;7.674;2023-06-19T00:22:38;9.52;;;6.85;;
11743;SDS011;5929;51.906;7.674;2023-06-19T00:25:05;8.35;;;6.80;;
11743;SDS011;5929;51.906;7.674;2023-06-19T00:27:33;10.55;;;7.30;;
11743;SDS011;5929;51.906;7.674;2023-06-19T00:30:01;10.07;;;6.88;;
11743;SDS011;5929;51.906;7.674;2023-06-19T00:32:28;9.48;;;6.85;;
11743;SDS011;5929;51.906;7.674;2023-06-19T00:34:55;10.32;;;7.15;;
11743;SDS011;5929;51.906;7.674;2023-06-19T00:37:22;10.43;;;7.45;;
11743;SDS011;5929;51.906;7.674;2023-06-19T00:39:48;8.68;;;6.78;;
11743;SDS011;5929;51.906;7.674;2023-06-19T00:42:15;8.43;;;6.68;;
11743;SDS011;5929;51.906;7.674;2023-06-19T00:44:42;9.98;;;7.30;;
11743;SDS011;5929;51.906;7.674;2023-06-19T00:47:10;8.82;;;6.40;;
11743;SDS011;5929;51.906;7.674;2023-06-19T00:49:37;14.40;;;7.05;;
11743;SDS011;5929;51.906;7.674;2023-06-19T00:52:05;9.45;;;7.28;;
11743;SDS011;5929;51.906;7.674;2023-06-19T00:54:32;9.02;;;6.47;;
11743;SDS011;5929;51.906;7.674;2023-06-19T00:57:01;9.52;;;7.30;;
11743;SDS011;5929;51.906;7.674;2023-06-19T00:59:29;10.20;;;6.68;;
11743;SDS011;5929;51.906;7.674;2023-06-19T01:01:56;10.63;;;7.95;;
11743;SDS011;5929;51.906;7.674;2023-06-19T01:04:24;10.63;;;7.22;;
11743;SDS011;5929;51.906;7.674;2023-06-19T01:06:52;8.77;;;7.00;;
11743;SDS011;5929;51.906;7.674;2023-06-19T01:09:25;9.43;;;6.45;;
11743;SDS011;5929;51.906;7.674;2023-06-19T01:11:57;10.35;;;7.18;;
11743;SDS011;5929;51.906;7.674;2023-06-19T01:14:28;8.05;;;6.60;;
11743;SDS011;5929;51.906;7.674;2023-06-19T01:17:00;9.23;;;7.00;;
11743;SDS011;5929;51.906;7.674;2023-06-19T01:19:29;9.07;;;6.53;;
11743;SDS011;5929;51.906;7.674;2023-06-19T01:24:28;10.40;;;7.07;;
11743;SDS011;5929;51.906;7.674;2023-06-19T01:26:55;7.97;;;6.38;;
11743;SDS011;5929;51.906;7.674;2023-06-19T01:29:22;11.07;;;6.63;;
11743;SDS011;5929;51.906;7.674;2023-06-19T01:31:52;10.05;;;6.72;;
11743;SDS011;5929;51.906;7.674;2023-06-19T01:34:25;11.30;;;7.43;;
11743;SDS011;5929;51.906;7.674;2023-06-19T01:36:55;9.27;;;6.63;;
11743;SDS011;5929;51.906;7.674;2023-06-19T01:39:24;8.05;;;6.15;;
11743;SDS011;5929;51.906;7.674;2023-06-19T01:41:52;8.32;;;5.90;;
11743;SDS011;5929;51.906;7.674;2023-06-19T01:44:21;10.13;;;6.55;;
11743;SDS011;5929;51.906;7.674;2023-06-19T01:46:48;9.75;;;6.88;;
11743;SDS011;5929;51.906;7.674;2023-06-19T01:49:17;9.38;;;7.40;;
11743;SDS011;5929;51.906;7.674;2023-06-19T01:51:44;9.73;;;6.72;;
11743;SDS011;5929;51.906;7.674;2023-06-19T01:54:11;8.10;;;6.25;;
11743;SDS011;5929;51.906;7.674;2023-06-19T01:56:39;8.45;;;6.68;;
11743;SDS011;5929;51.906;7.674;2023-06-19T01:59:06;9.07;;;6.85;;
11743;SDS011;5929;51.906;7.674;2023-06-19T02:01:36;9.20;;;6.35;;
11743;SDS011;5929;51.906;7.674;2023-06-19T02:04:02;9.63;;;6.82;;
11743;SDS011;5929;51.906;7.674;2023-06-19T02:06:30;9.88;;;6.00;;
11743;SDS011;5929;51.906;7.674;2023-06-19T02:08:56;9.98;;;6.55;;
11743;SDS011;5929;51.906;7.674;2023-06-19T02:11:23;11.57;;;7.07;;
11743;SDS011;5929;51.906;7.674;2023-06-19T02:13:51;9.32;;;6.35;;
11743;SDS011;5929;51.906;7.674;2023-06-19T02:16:18;7.95;;;6.30;;
11743;SDS011;5929;51.906;7.674;2023-06-19T02:18:45;7.93;;;5.82;;
11743;SDS011;5929;51.906;7.674;2023-06-19T02:21:12;8.57;;;5.97;;
11743;SDS011;5929;51.906;7.674;2023-06-19T02:23:39;7.97;;;6.18;;
11743;SDS011;5929;51.906;7.674;2023-06-19T02:26:05;8.65;;;5.82;;
11743;SDS011;5929;51.906;7.674;2023-06-19T02:28:32;10.32;;;6.28;;
11743;SDS011;5929;51.906;7.674;2023-06-19T02:31:00;7.25;;;5.65;;
11743;SDS011;5929;51.906;7.674;2023-06-19T02:33:27;8.20;;;6.05;;
11743;SDS011;5929;51.906;7.674;2023-06-19T02:35:54;8.93;;;6.22;;
11743;SDS011;5929;51.906;7.674;2023-06-19T02:38:25;8.93;;;6.50;;
11743;SDS011;5929;51.906;7.674;2023-06-19T02:40:52;7.45;;;5.68;;
11743;SDS011;5929;51.906;7.674;2023-06-19T02:43:18;7.53;;;6.13;;
11743;SDS011;5929;51.906;7.674;2023-06-19T02:45:48;7.43;;;5.57;;
11743;SDS011;5929;51.906;7.674;2023-06-19T02:48:16;10.05;;;6.05;;
11743;SDS011;5929;51.906;7.674;2023-06-19T02:50:44;7.63;;;6.35;;
11743;SDS011;5929;51.906;7.674;2023-06-19T02:53:11;10.45;;;6.15;;
11743;SDS011;5929;51.906;7.674;2023-06-19T02:55:37;9.88;;;6.18;;
11743;SDS011;5929;51.906;7.674;2023-06-19T02:58:04;9.40;;;6.63;;
11743;SDS011;5929;51.906;7.674;2023-06-19T03:00:31;8.60;;;6.22;;
11743;SDS011;5929;51.906;7.674;2023-06-19T03:02:58;8.25;;;6.70;;
11743;SDS011;5929;51.906;7.674;2023-06-19T03:05:26;8.80;;;6.40;;
11743;SDS011;5929;51.906;7.674;2023-06-19T03:07:53;8.50;;;6.20;;
11743;SDS011;5929;51.906;7.674;2023-06-19T03:10:19;9.95;;;6.53;;
11743;SDS011;5929;51.906;7.674;2023-06-19T03:12:46;7.80;;;6.13;;
11743;SDS011;5929;51.906;7.674;2023-06-19T03:15:13;10.32;;;6.13;;
11743;SDS011;5929;51.906;7.674;2023-06-19T03:17:40;7.65;;;5.93;;
11743;SDS011;5929;51.906;7.674;2023-06-19T03:20:07;7.60;;;5.90;;
11743;SDS011;5929;51.906;7.674;2023-06-19T03:22:38;8.25;;;5.85;;
11743;SDS011;5929;51.906;7.674;2023-06-19T03:25:06;8.52;;;6.13;;
11743;SDS011;5929;51.906;7.674;2023-06-19T03:27:33;9.88;;;5.50;;
11743;SDS011;5929;51.906;7.674;2023-06-19T03:30:00;8.38;;;6.10;;
11743;SDS011;5929;51.906;7.674;2023-06-19T03:32:28;8.05;;;5.95;;
11743;SDS011;5929;51.906;7.674;2023-06-19T03:34:58;12.43;;;6.05;;
11743;SDS011;5929;51.906;7.674;2023-06-19T03:37:25;9.48;;;5.85;;
11743;SDS011;5929;51.906;7.674;2023-06-19T03:39:53;8.35;;;6.15;;
11743;SDS011;5929;51.906;7.674;2023-06-19T03:42:20;7.18;;;5.20;;
11743;SDS011;5929;51.906;7.674;2023-06-19T03:44:47;7.75;;;5.50;;
11743;SDS011;5929;51.906;7.674;2023-06-19T03:47:16;7.65;;;5.95;;
11743;SDS011;5929;51.906;7.674;2023-06-19T03:49:43;9.07;;;6.22;;
11743;SDS011;5929;51.906;7.674;2023-06-19T03:52:09;9.57;;;6.28;;
11743;SDS011;5929;51.906;7.674;2023-06-19T03:54:36;7.90;;;5.50;;
11743;SDS011;5929;51.906;7.674;2023-06-19T03:57:05;10.63;;;6.80;;
11743;SDS011;5929;51.906;7.674;2023-06-19T03:59:33;8.90;;;6.70;;
11743;SDS011;5929;51.906;7.674;2023-06-19T04:02:00;9.20;;;6.63;;
11743;SDS011;5929;51.906;7.674;2023-06-19T04:04:27;7.78;;;5.97;;
11743;SDS011;5929;51.906;7.674;2023-06-19T04:06:53;8.45;;;5.53;;
11743;SDS011;5929;51.906;7.674;2023-06-19T04:09:20;8.18;;;6.43;;
11743;SDS011;5929;51.906;7.674;2023-06-19T04:11:47;8.90;;;6.57;;
11743;SDS011;5929;51.906;7.674;2023-06-19T04:14:15;9.52;;;6.30;;
11743;SDS011;5929;51.906;7.674;2023-06-19T04:16:42;8.63;;;6.35;;
11743;SDS011;5929;51.906;7.674;2023-06-19T04:19:09;7.95;;;5.95;;
11743;SDS011;5929;51.906;7.674;2023-06-19T04:21:35;7.95;;;6.03;;
11743;SDS011;5929;51.906;7.674;2023-06-19T04:24:02;7.88;;;5.85;;
11743;SDS011;5929;51.906;7.674;2023-06-19T04:26:33;9.02;;;6.10;;
11743;SDS011;5929;51.906;7.674;2023-06-19T04:29:00;9.20;;;6.10;;
11743;SDS011;5929;51.906;7.674;2023-06-19T04:31:28;8.77;;;5.80;;
11743;SDS011;5929;51.906;7.674;2023-06-19T04:33:55;8.63;;;7.10;;
11743;SDS011;5929;51.906;7.674;2023-06-19T04:36:22;8.45;;;6.30;;
11743;SDS011;5929;51.906;7.674;2023-06-19T04:38:49;10.80;;;6.32;;
11743;SDS011;5929;51.906;7.674;2023-06-19T04:41:17;10.32;;;5.80;;
11743;SDS011;5929;51.906;7.674;2023-06-19T04:43:44;10.05;;;6.63;;
11743;SDS011;5929;51.906;7.674;2023-06-19T04:46:10;8.52;;;6.60;;
11743;SDS011;5929;51.906;7.674;2023-06-19T04:48:38;8.27;;;6.30;;
11743;SDS011;5929;51.906;7.674;2023-06-19T04:51:08;9.45;;;6.07;;
11743;SDS011;5929;51.906;7.674;2023-06-19T04:53:35;11.77;;;5.78;;
11743;SDS011;5929;51.906;7.674;2023-06-19T04:56:02;11.43;;;6.30;;
11743;SDS011;5929;51.906;7.674;2023-06-19T04:58:29;11.05;;;6.57;;
11743;SDS011;5929;51.906;7.674;2023-06-19T05:00:56;8.35;;;5.70;;
11743;SDS011;5929;51.906;7.674;2023-06-19T05:03:23;9.18;;;6.18;;
11743;SDS011;5929;51.906;7.674;2023-06-19T05:05:52;7.68;;;5.93;;
11743;SDS011;5929;51.906;7.674;2023-06-19T05:08:21;9.05;;;6.25;;
11743;SDS011;5929;51.906;7.674;2023-06-19T05:10:47;9.10;;;5.78;;
11743;SDS011;5929;51.906;7.674;2023-06-19T05:13:15;9.02;;;6.18;;
11743;SDS011;5929;51.906;7.674;2023-06-19T05:15:43;10.02;;;5.50;;
11743;SDS011;5929;51.906;7.674;2023-06-19T05:18:11;10.23;;;5.88;;
11743;SDS011;5929;51.906;7.674;2023-06-19T05:20:37;8.65;;;6.35;;
11743;SDS011;5929;51.906;7.674;2023-06-19T05:23:05;9.15;;;6.10;;
11743;SDS011;5929;51.906;7.674;2023-06-19T05:25:32;9.32;;;6.05;;
11743;SDS011;5929;51.906;7.674;2023-06-19T05:27:59;8.93;;;5.72;;
11743;SDS011;5929;51.906;7.674;2023-06-19T05:30:26;8.77;;;6.00;;
11743;SDS011;5929;51.906;7.674;2023-06-19T05:32:53;10.70;;;6.00;;
11743;SDS011;5929;51.906;7.674;2023-06-19T05:35:20;7.40;;;5.50;;
11743;SDS011;5929;51.906;7.674;2023-06-19T05:37:46;9.00;;;5.80;;
11743;SDS011;5929;51.906;7.674;2023-06-19T05:40:15;7.85;;;5.82;;
11743;SDS011;5929;51.906;7.674;2023-06-19T05:42:42;8.23;;;5.43;;
11743;SDS011;5929;51.906;7.674;2023-06-19T05:45:09;9.10;;;6.00;;
11743;SDS011;5929;51.906;7.674;2023-06-19T05:47:36;9.50;;;5.20;;
11743;SDS011;5929;51.906;7.674;2023-06-19T05:50:04;8.77;;;4.75;;
11743;SDS011;5929;51.906;7.674;2023-06-19T05:52:31;13.05;;;5.53;;
11743;SDS011;5929;51.906;7.674;2023-06-19T05:54:58;12.95;;;4.88;;
11743;SDS011;5929;51.906;7.674;2023-06-19T05:57:27;9.07;;;5.30;;
11743;SDS011;5929;51.906;7.674;2023-06-19T05:59:53;7.90;;;4.80;;
11743;SDS011;5929;51.906;7.674;2023-06-19T06:02:23;13.25;;;6.40;;
11743;SDS011;5929;51.906;7.674;2023-06-19T06:04:53;8.48;;;5.28;;
11743;SDS011;5929;51.906;7.674;2023-06-19T06:07:21;7.65;;;4.40;;
11743;SDS011;5929;51.906;7.674;2023-06-19T06:09:48;7.97;;;4.53;;
11743;SDS011;5929;51.906;7.674;2023-06-19T06:12:15;6.82;;;4.35;;
11743;SDS011;5929;51.906;7.674;2023-06-19T06:14:43;10.00;;;4.22;;
11743;SDS011;5929;51.906;7.674;2023-06-19T06:17:10;7.88;;;4.15;;
11743;SDS011;5929;51.906;7.674;2023-06-19T06:19:37;7.78;;;4.60;;
11743;SDS011;5929;51.906;7.674;2023-06-19T06:22:05;7.88;;;4.50;;
11743;SDS011;5929;51.906;7.674;2023-06-19T06:24:32;6.53;;;3.50;;
11743;SDS011;5929;51.906;7.674;2023-06-19T06:26:58;8.88;;;4.50;;
11743;SDS011;5929;51.906;7.674;2023-06-19T06:29:25;6.07;;;3.40;;
11743;SDS011;5929;51.906;7.674;2023-06-19T06:32:02;7.30;;;3.38;;
11743;SDS011;5929;51.906;7.674;2023-06-19T06:34:29;5.88;;;3.65;;
11743;SDS011;5929;51.906;7.674;2023-06-19T06:36:57;5.70;;;3.13;;
11743;SDS011;5929;51.906;7.674;2023-06-19T06:39:24;6.18;;;2.80;;
11743;SDS011;5929;51.906;7.674;2023-06-19T06:41:51;7.80;;;3.17;;
11743;SDS011;5929;51.906;7.674;2023-06-19T06:44:18;8.05;;;2.90;;
11743;SDS011;5929;51.906;7.674;2023-06-19T06:46:45;4.57;;;2.42;;
11743;SDS011;5929;51.906;7.674;2023-06-19T06:49:13;5.78;;;3.17;;
11743;SDS011;5929;51.906;7.674;2023-06-19T06:51:41;5.72;;;3.05;;
11743;SDS011;5929;51.906;7.674;2023-06-19T06:54:08;5.90;;;3.17;;
11743;SDS011;5929;51.906;7.674;2023-06-19T06:56:35;5.60;;;2.67;;
11743;SDS011;5929;51.906;7.674;2023-06-19T06:59:02;4.75;;;2.30;;
11743;SDS011;5929;51.906;7.674;2023-06-19T07:01:29;4.78;;;2.83;;
11743;SDS011;5929;51.906;7.674;2023-06-19T07:03:56;8.50;;;3.38;;
11743;SDS011;5929;51.906;7.674;2023-06-19T07:06:24;9.18;;;4.03;;
11743;SDS011;5929;51.906;7.674;2023-06-19T07:08:53;8.05;;;3.60;;
11743;SDS011;5929;51.906;7.674;2023-06-19T07:11:20;8.13;;;3.88;;
11743;SDS011;5929;51.906;7.674;2023-06-19T07:13:46;8.30;;;4.53;;
11743;SDS011;5929;51.906;7.674;2023-06-19T07:16:13;7.47;;;4.70;;
11743;SDS011;5929;51.906;7.674;2023-06-19T07:18:43;8.88;;;5.47;;
11743;SDS011;5929;51.906;7.674;2023-06-19T07:21:10;7.45;;;4.78;;
11743;SDS011;5929;51.906;7.674;2023-06-19T07:23:40;8.13;;;4.50;;
11743;SDS011;5929;51.906;7.674;2023-06-19T07:26:09;7.13;;;4.55;;
11743;SDS011;5929;51.906;7.674;2023-06-19T07:28:36;6.75;;;4.22;;
11743;SDS011;5929;51.906;7.674;2023-06-19T07:31:02;9.13;;;4.45;;
11743;SDS011;5929;51.906;7.674;2023-06-19T07:33:29;4.82;;;3.30;;
11743;SDS011;5929;51.906;7.674;2023-06-19T07:35:56;5.45;;;3.30;;
11743;SDS011;5929;51.906;7.674;2023-06-19T07:38:23;4.72;;;2.90;;
11743;SDS011;5929;51.906;7.674;2023-06-19T07:40:51;7.70;;;2.70;;
11743;SDS011;5929;51.906;7.674;2023-06-19T07:43:18;6.65;;;2.90;;
11743;SDS011;5929;51.906;7.674;2023-06-19T07:45:47;4.68;;;2.50;;
11743;SDS011;5929;51.906;7.674;2023-06-19T07:48:14;7.95;;;2.80;;
11743;SDS011;5929;51.906;7.674;2023-06-19T07:50:41;5.68;;;2.45;;
11743;SDS011;5929;51.906;7.674;2023-06-19T07:53:07;5.35;;;2.33;;
11743;SDS011;5929;51.906;7.674;2023-06-19T07:55:34;7.03;;;2.10;;
11743;SDS011;5929;51.906;7.674;2023-06-19T07:58:02;7.15;;;2.22;;
11743;SDS011;5929;51.906;7.674;2023-06-19T08:00:29;5.18;;;2.10;;
11743;SDS011;5929;51.906;7.674;2023-06-19T08:02:56;4.68;;;2.22;;
11743;SDS011;5929;51.906;7.674;2023-06-19T08:05:23;5.50;;;2.15;;
11743;SDS011;5929;51.906;7.674;2023-06-19T08:07:49;4.70;;;2.35;;
11743;SDS011;5929;51.906;7.674;2023-06-19T08:10:24;6.63;;;2.88;;
11743;SDS011;5929;51.906;7.674;2023-06-19T08:12:50;9.30;;;2.78;;
11743;SDS011;5929;51.906;7.674;2023-06-19T08:15:19;6.18;;;3.03;;
11743;SDS011;5929;51.906;7.674;2023-06-19T08:17:45;4.35;;;2.20;;
11743;SDS011;5929;51.906;7.674;2023-06-19T08:20:12;5.55;;;2.45;;
11743;SDS011;5929;51.906;7.674;2023-06-19T08:22:39;4.53;;;2.22;;
11743;SDS011;5929;51.906;7.674;2023-06-19T08:25:08;5.82;;;2.22;;
11743;SDS011;5929;51.906;7.674;2023-06-19T08:27:35;5.07;;;2.35;;
11743;SDS011;5929;51.906;7.674;2023-06-19T08:30:02;5.10;;;2.92;;
11743;SDS011;5929;51.906;7.674;2023-06-19T08:32:31;4.88;;;2.47;;
11743;SDS011;5929;51.906;7.674;2023-06-19T08:34:59;9.82;;;3.13;;
11743;SDS011;5929;51.906;7.674;2023-06-19T08:37:26;7.60;;;2.95;;
11743;SDS011;5929;51.906;7.674;2023-06-19T08:39:53;6.47;;;3.10;;
11743;SDS011;5929;51.906;7.674;2023-06-19T08:42:21;8.65;;;3.00;;
11743;SDS011;5929;51.906;7.674;2023-06-19T08:44:48;7.50;;;2.90;;
11743;SDS011;5929;51.906;7.674;2023-06-19T08:47:16;7.25;;;2.90;;
11743;SDS011;5929;51.906;7.674;2023-06-19T08:49:46;5.82;;;2.40;;
11743;SDS011;5929;51.906;7.674;2023-06-19T08:52:13;7.75;;;2.15;;
11743;SDS011;5929;51.906;7.674;2023-06-19T08:54:40;4.85;;;2.10;;
11743;SDS011;5929;51.906;7.674;2023-06-19T08:57:10;5.63;;;2.22;;
11743;SDS011;5929;51.906;7.674;2023-06-19T08:59:37;4.78;;;2.55;;
11743;SDS011;5929;51.906;7.674;2023-06-19T09:02:04;5.50;;;2.17;;
11743;SDS011;5929;51.906;7.674;2023-06-19T09:04:32;5.93;;;2.40;;
11743;SDS011;5929;51.906;7.674;2023-06-19T09:07:01;7.80;;;2.45;;
11743;SDS011;5929;51.906;7.674;2023-06-19T09:09:29;7.07;;;2.35;;
11743;SDS011;5929;51.906;7.674;2023-06-19T09:11:58;8.65;;;2.78;;
11743;SDS011;5929;51.906;7.674;2023-06-19T09:14:33;6.57;;;2.88;;
11743;SDS011;5929;51.906;7.674;2023-06-19T09:17:03;9.02;;;3.70;;
11743;SDS011;5929;51.906;7.674;2023-06-19T09:19:32;7.80;;;3.53;;
11743;SDS011;5929;51.906;7.674;2023-06-19T09:22:01;8.85;;;3.30;;
11743;SDS011;5929;51.906;7.674;2023-06-19T09:24:33;5.57;;;3.15;;
11743;SDS011;5929;51.906;7.674;2023-06-19T09:27:08;4.80;;;2.95;;
11743;SDS011;5929;51.906;7.674;2023-06-19T09:29:37;6.45;;;3.10;;
11743;SDS011;5929;51.906;7.674;2023-06-19T09:32:14;6.15;;;3.75;;
11743;SDS011;5929;51.906;7.674;2023-06-19T09:34:42;7.78;;;4.43;;
11743;SDS011;5929;51.906;7.674;2023-06-19T09:37:10;5.18;;;3.60;;
11743;SDS011;5929;51.906;7.674;2023-06-19T09:39:38;7.63;;;4.65;;
11743;SDS011;5929;51.906;7.674;2023-06-19T09:42:06;5.75;;;3.20;;
11743;SDS011;5929;51.906;7.674;2023-06-19T09:44:37;7.40;;;3.30;;
11743;SDS011;5929;51.906;7.674;2023-06-19T09:47:10;5.63;;;3.03;;
11743;SDS011;5929;51.906;7.674;2023-06-19T09:49:43;7.07;;;2.80;;
11743;SDS011;5929;51.906;7.674;2023-06-19T09:52:16;7.05;;;3.10;;
11743;SDS011;5929;51.906;7.674;2023-06-19T09:54:44;7.18;;;3.20;;
11743;SDS011;5929;51.906;7.674;2023-06-19T09:57:12;6.85;;;3.20;;
11743;SDS011;5929;51.906;7.674;2023-06-19T09:59:39;5.72;;;3.10;;
11743;SDS011;5929;51.906;7.674;2023-06-19T10:02:07;6.07;;;3.15;;
11743;SDS011;5929;51.906;7.674;2023-06-19T10:04:42;5.85;;;3.30;;
11743;SDS011;5929;51.906;7.674;2023-06-19T10:07:19;9.23;;;3.55;;
11743;SDS011;5929;51.906;7.674;2023-06-19T10:09:57;5.03;;;3.20;;
11743;SDS011;5929;51.906;7.674;2023-06-19T10:12:37;5.88;;;3.30;;
11743;SDS011;5929;51.906;7.674;2023-06-19T10:15:09;4.88;;;3.72;;
11743;SDS011;5929;51.906;7.674;2023-06-19T10:17:43;6.30;;;4.00;;
11743;SDS011;5929;51.906;7.674;2023-06-19T10:20:21;6.03;;;3.53;;
11743;SDS011;5929;51.906;7.674;2023-06-19T10:22:51;5.45;;;3.38;;
11743;SDS011;5929;51.906;7.674;2023-06-19T10:25:22;5.57;;;3.67;;
11743;SDS011;5929;51.906;7.674;2023-06-19T10:27:49;4.95;;;3.22;;
11743;SDS011;5929;51.906;7.674;2023-06-19T10:30:17;6.70;;;3.40;;
11743;SDS011;5929;51.906;7.674;2023-06-19T10:32:44;7.00;;;3.67;;
11743;SDS011;5929;51.906;7.674;2023-06-19T10:35:11;6.60;;;3.47;;
11743;SDS011;5929;51.906;7.674;2023-06-19T10:37:39;5.38;;;3.47;;
11743;SDS011;5929;51.906;7.674;2023-06-19T10:40:07;7.60;;;3.58;;
11743;SDS011;5929;51.906;7.674;2023-06-19T10:42:36;5.93;;;3.80;;
11743;SDS011;5929;51.906;7.674;2023-06-19T10:45:04;6.57;;;3.30;;
11743;SDS011;5929;51.906;7.674;2023-06-19T10:47:32;5.53;;;3.70;;
11743;SDS011;5929;51.906;7.674;2023-06-19T10:49:59;6.40;;;3.40;;
11743;SDS011;5929;51.906;7.674;2023-06-19T10:52:27;7.18;;;3.65;;
11743;SDS011;5929;51.906;7.674;2023-06-19T10:54:54;6.05;;;3.72;;
11743;SDS011;5929;51.906;7.674;2023-06-19T10:57:27;6.57;;;3.42;;
11743;SDS011;5929;51.906;7.674;2023-06-19T10:59:55;4.45;;;3.00;;
11743;SDS011;5929;51.906;7.674;2023-06-19T11:02:22;6.78;;;3.42;;
11743;SDS011;5929;51.906;7.674;2023-06-19T11:04:49;8.07;;;3.20;;
11743;SDS011;5929;51.906;7.674;2023-06-19T11:07:19;5.65;;;3.70;;
11743;SDS011;5929;51.906;7.674;2023-06-19T11:09:49;7.13;;;2.95;;
11743;SDS011;5929;51.906;7.674;2023-06-19T11:12:19;8.15;;;3.25;;
11743;SDS011;5929;51.906;7.674;2023-06-19T11:14:48;8.60;;;3.30;;
11743;SDS011;5929;51.906;7.674;2023-06-19T11:17:15;7.07;;;3.10;;
11743;SDS011;5929;51.906;7.674;2023-06-19T11:19:46;8.27;;;3.90;;
11743;SDS011;5929;51.906;7.674;2023-06-19T11:22:13;5.60;;;3.70;;
11743;SDS011;5929;51.906;7.674;2023-06-19T11:24:43;7.60;;;3.67;;
11743;SDS011;5929;51.906;7.674;2023-06-19T11:27:15;5.68;;;3.30;;
11743;SDS011;5929;51.906;7.674;2023-06-19T11:29:44;7.40;;;3.50;;
11743;SDS011;5929;51.906;7.674;2023-06-19T11:32:14;5.18;;;3.25;;
11743;SDS011;5929;51.906;7.674;2023-06-19T11:34:49;6.80;;;3.85;;
11743;SDS011;5929;51.906;7.674;2023-06-19T11:37:19;6.55;;;3.47;;
11743;SDS011;5929;51.906;7.674;2023-06-19T11:39:47;7.18;;;3.33;;
11743;SDS011;5929;51.906;7.674;2023-06-19T11:42:17;5.75;;;3.35;;
11743;SDS011;5929;51.906;7.674;2023-06-19T11:44:53;6.05;;;3.08;;
11743;SDS011;5929;51.906;7.674;2023-06-19T11:47:22;6.88;;;3.45;;
11743;SDS011;5929;51.906;7.674;2023-06-19T11:49:49;10.38;;;3.30;;
11743;SDS011;5929;51.906;7.674;2023-06-19T11:52:17;8.55;;;3.03;;
11743;SDS011;5929;51.906;7.674;2023-06-19T11:54:43;7.47;;;3.38;;
11743;SDS011;5929;51.906;7.674;2023-06-19T11:57:10;6.93;;;3.05;;
11743;SDS011;5929;51.906;7.674;2023-06-19T11:59:38;7.55;;;3.38;;
11743;SDS011;5929;51.906;7.674;2023-06-19T12:02:05;5.65;;;2.95;;
11743;SDS011;5929;51.906;7.674;2023-06-19T12:04:33;4.78;;;2.70;;
11743;SDS011;5929;51.906;7.674;2023-06-19T12:07:01;5.35;;;2.92;;
11743;SDS011;5929;51.906;7.674;2023-06-19T12:09:29;6.70;;;2.80;;
11743;SDS011;5929;51.906;7.674;2023-06-19T12:11:56;4.55;;;2.63;;
11743;SDS011;5929;51.906;7.674;2023-06-19T12:14:23;7.88;;;2.85;;
11743;SDS011;5929;51.906;7.674;2023-06-19T12:16:51;7.00;;;2.60;;
11743;SDS011;5929;51.906;7.674;2023-06-19T12:19:18;6.10;;;3.10;;
11743;SDS011;5929;51.906;7.674;2023-06-19T12:21:46;5.47;;;3.30;;
11743;SDS011;5929;51.906;7.674;2023-06-19T12:24:13;7.35;;;2.50;;
11743;SDS011;5929;51.906;7.674;2023-06-19T12:26:40;5.20;;;2.70;;
11743;SDS011;5929;51.906;7.674;2023-06-19T12:29:07;6.97;;;2.97;;
11743;SDS011;5929;51.906;7.674;2023-06-19T12:31:34;6.22;;;3.05;;
11743;SDS011;5929;51.906;7.674;2023-06-19T12:34:02;7.22;;;3.03;;
11743;SDS011;5929;51.906;7.674;2023-06-19T12:36:29;4.75;;;3.05;;
11743;SDS011;5929;51.906;7.674;2023-06-19T12:38:58;6.88;;;2.92;;
11743;SDS011;5929;51.906;7.674;2023-06-19T12:41:25;7.22;;;3.00;;
11743;SDS011;5929;51.906;7.674;2023-06-19T12:43:52;6.05;;;3.00;;
11743;SDS011;5929;51.906;7.674;2023-06-19T12:46:19;6.85;;;3.15;;
11743;SDS011;5929;51.906;7.674;2023-06-19T12:48:46;4.80;;;2.88;;
11743;SDS011;5929;51.906;7.674;2023-06-19T12:51:15;5.50;;;3.13;;
11743;SDS011;5929;51.906;7.674;2023-06-19T12:53:43;5.55;;;3.17;;
11743;SDS011;5929;51.906;7.674;2023-06-19T12:56:11;6.53;;;3.40;;
11743;SDS011;5929;51.906;7.674;2023-06-19T12:58:38;7.25;;;3.10;;
11743;SDS011;5929;51.906;7.674;2023-06-19T13:01:04;10.75;;;3.67;;
11743;SDS011;5929;51.906;7.674;2023-06-19T13:03:31;5.00;;;3.30;;
11743;SDS011;5929;51.906;7.674;2023-06-19T13:05:58;5.25;;;2.88;;
11743;SDS011;5929;51.906;7.674;2023-06-19T13:08:25;5.20;;;3.35;;
11743;SDS011;5929;51.906;7.674;2023-06-19T13:10:54;6.90;;;3.13;;
11743;SDS011;5929;51.906;7.674;2023-06-19T13:13:22;11.25;;;3.67;;
11743;SDS011;5929;51.906;7.674;2023-06-19T13:15:49;6.10;;;3.40;;
11743;SDS011;5929;51.906;7.674;2023-06-19T13:18:18;6.20;;;3.55;;
11743;SDS011;5929;51.906;7.674;2023-06-19T13:20:45;5.55;;;3.00;;
11743;SDS011;5929;51.906;7.674;2023-06-19T13:23:13;5.93;;;3.05;;
11743;SDS011;5929;51.906;7.674;2023-06-19T13:25:40;6.88;;;3.90;;
11743;SDS011;5929;51.906;7.674;2023-06-19T13:28:07;7.97;;;3.80;;
11743;SDS011;5929;51.906;7.674;2023-06-19T13:30:35;6.43;;;3.63;;
11743;SDS011;5929;51.906;7.674;2023-06-19T13:33:02;6.63;;;3.72;;
11743;SDS011;5929;51.906;7.674;2023-06-19T13:35:28;12.30;;;3.97;;
11743;SDS011;5929;51.906;7.674;2023-06-19T13:37:55;6.75;;;3.58;;
11743;SDS011;5929;51.906;7.674;2023-06-19T13:40:22;7.18;;;4.00;;
11743;SDS011;5929;51.906;7.674;2023-06-19T13:42:49;8.07;;;3.63;;
11743;SDS011;5929;51.906;7.674;2023-06-19T13:45:16;6.75;;;3.80;;
11743;SDS011;5929;51.906;7.674;2023-06-19T13:47:47;6.22;;;3.45;;
11743;SDS011;5929;51.906;7.674;2023-06-19T13:50:14;8.38;;;3.42;;
11743;SDS011;5929;51.906;7.674;2023-06-19T13:52:43;5.90;;;3.97;;
11743;SDS011;5929;51.906;7.674;2023-06-19T13:55:10;6.05;;;3.85;;
11743;SDS011;5929;51.906;7.674;2023-06-19T13:57:39;5.60;;;3.42;;
11743;SDS011;5929;51.906;7.674;2023-06-19T14:00:07;7.20;;;3.97;;
11743;SDS011;5929;51.906;7.674;2023-06-19T14:02:35;13.82;;;3.85;;
11743;SDS011;5929;51.906;7.674;2023-06-19T14:05:05;8.68;;;5.43;;
11743;SDS011;5929;51.906;7.674;2023-06-19T14:07:32;20.70;;;15.98;;
11743;SDS011;5929;51.906;7.674;2023-06-19T14:10:00;6.10;;;4.10;;
11743;SDS011;5929;51.906;7.674;2023-06-19T14:12:30;9.57;;;6.53;;
11743;SDS011;5929;51.906;7.674;2023-06-19T14:14:57;25.60;;;20.02;;
11743;SDS011;5929;51.906;7.674;2023-06-19T14:17:24;8.73;;;5.70;;
11743;SDS011;5929;51.906;7.674;2023-06-19T14:19:51;7.50;;;4.82;;
11743;SDS011;5929;51.906;7.674;2023-06-19T14:22:19;7.78;;;4.28;;
11743;SDS011;5929;51.906;7.674;2023-06-19T14:24:46;6.78;;;4.50;;
11743;SDS011;5929;51.906;7.674;2023-06-19T14:27:13;7.15;;;4.85;;
11743;SDS011;5929;51.906;7.674;2023-06-19T14:29:40;8.40;;;4.35;;
11743;SDS011;5929;51.906;7.674;2023-06-19T14:32:06;6.15;;;4.05;;
11743;SDS011;5929;51.906;7.674;2023-06-19T14:34:33;7.10;;;4.75;;
11743;SDS011;5929;51.906;7.674;2023-06-19T14:37:03;10.00;;;3.92;;
11743;SDS011;5929;51.906;7.674;2023-06-19T14:39:31;7.95;;;4.78;;
11743;SDS011;5929;51.906;7.674;2023-06-19T14:41:58;7.30;;;4.00;;
11743;SDS011;5929;51.906;7.674;2023-06-19T14:44:24;8.93;;;4.43;;
11743;SDS011;5929;51.906;7.674;2023-06-19T14:46:51;10.07;;;4.65;;
11743;SDS011;5929;51.906;7.674;2023-06-19T14:49:18;6.85;;;4.28;;
11743;SDS011;5929;51.906;7.674;2023-06-19T14:51:49;8.55;;;4.88;;
11743;SDS011;5929;51.906;7.674;2023-06-19T14:54:15;7.07;;;4.22;;
11743;SDS011;5929;51.906;7.674;2023-06-19T14:56:44;7.30;;;4.53;;
11743;SDS011;5929;51.906;7.674;2023-06-19T14:59:13;8.52;;;4.75;;
11743;SDS011;5929;51.906;7.674;2023-06-19T15:01:39;7.32;;;4.15;;
11743;SDS011;5929;51.906;7.674;2023-06-19T15:04:06;8.02;;;4.60;;
11743;SDS011;5929;51.906;7.674;2023-06-19T15:06:33;7.03;;;4.97;;